createdAt,value
2018-05-12T05:21:54.151Z,20.53
2018-05-12T05:24:22.783Z,19.62
2018-05-12T05:26:51.342Z,18.69
2018-05-12T05:29:19.942Z,18.31
2018-05-12T05:31:48.518Z,17.89
2018-05-12T05:34:17.131Z,18.21
2018-05-12T05:36:47.816Z,18.48
2018-05-12T05:39:18.579Z,18.32
2018-05-12T05:41:46.537Z,18.13
2018-05-12T05:44:15.264Z,18.02
2018-05-12T05:46:43.835Z,18.32
2018-05-12T05:49:12.399Z,18.17
2018-05-12T05:51:40.971Z,17.83
2018-05-12T05:54:09.530Z,17.83
2018-05-12T05:56:38.119Z,17.70
2018-05-12T05:59:06.759Z,17.53
2018-05-12T06:01:35.332Z,17.57
2018-05-12T06:04:03.954Z,17.47
2018-05-12T06:06:32.568Z,17.62
2018-05-12T06:09:01.131Z,17.66
2018-05-12T06:11:29.716Z,17.72
2018-05-12T06:13:58.332Z,17.71
2018-05-12T06:16:26.902Z,17.72
2018-05-12T06:18:55.493Z,17.71
2018-05-12T06:21:24.116Z,17.66
2018-05-12T06:23:52.672Z,17.71
2018-05-12T06:26:21.248Z,17.80
2018-05-12T06:28:49.807Z,17.82
2018-05-12T06:31:18.418Z,17.82
2018-05-12T06:33:47.089Z,17.76
2018-05-12T06:36:15.649Z,17.58
2018-05-12T06:38:44.217Z,17.49
2018-05-12T06:41:12.788Z,17.56
2018-05-12T06:43:41.353Z,17.53
2018-05-12T06:46:09.974Z,17.40
2018-05-12T06:48:38.539Z,17.30
2018-05-12T06:51:07.319Z,17.37
2018-05-12T06:53:35.891Z,17.43
2018-05-12T06:56:04.123Z,17.54
2018-05-12T06:58:32.693Z,17.58
2018-05-12T07:01:01.267Z,17.63
2018-05-12T07:03:29.826Z,17.48
2018-05-12T07:05:58.430Z,17.57
2018-05-12T07:08:34.266Z,17.64
2018-05-12T07:11:02.883Z,17.76
2018-05-12T07:13:31.459Z,17.97
2018-05-12T07:16:00.078Z,18.13
2018-05-12T07:18:29.146Z,18.15
2018-05-12T07:20:57.734Z,18.31
2018-05-12T07:23:26.342Z,18.36
2018-05-12T07:25:54.904Z,18.44
2018-05-12T07:28:23.528Z,18.46
2018-05-12T07:38:32.616Z,18.30
2018-05-12T07:41:01.194Z,18.33
2018-05-12T07:43:29.762Z,18.52
2018-05-12T07:45:58.348Z,18.66
2018-05-12T07:48:26.927Z,18.76
2018-05-12T07:50:55.510Z,18.80
2018-05-12T07:53:24.074Z,18.86
2018-05-12T07:55:52.628Z,18.91
2018-05-12T07:58:21.178Z,19.01
2018-05-12T08:00:49.765Z,19.06
2018-05-12T08:03:18.329Z,19.15
2018-05-12T08:05:46.625Z,19.29
2018-05-12T08:08:15.205Z,19.42
2018-05-12T08:10:43.767Z,19.50
2018-05-12T08:13:12.346Z,19.38
2018-05-12T08:15:40.916Z,19.54
2018-05-12T08:18:09.486Z,19.70
2018-05-12T08:20:38.123Z,19.79
2018-05-12T08:23:06.792Z,19.86
2018-05-12T08:25:35.688Z,19.85
2018-05-12T08:28:04.237Z,19.91
2018-05-12T08:30:32.801Z,19.96
2018-05-12T08:33:01.365Z,19.99
2018-05-12T08:35:30.062Z,20.08
2018-05-12T08:37:59.874Z,20.12
2018-05-12T08:40:28.476Z,20.23
2018-05-12T08:42:57.163Z,20.32
2018-05-12T08:45:25.724Z,20.43
2018-05-12T08:47:54.961Z,20.29
2018-05-12T08:50:23.519Z,20.40
2018-05-12T08:52:52.081Z,20.57
2018-05-12T08:55:20.691Z,20.74
2018-05-12T08:57:49.456Z,20.84
2018-05-12T09:00:18.075Z,20.84
2018-05-12T09:02:45.966Z,20.75
2018-05-12T09:05:14.615Z,20.72
2018-05-12T09:07:43.306Z,20.78
2018-05-12T09:10:11.863Z,20.85
2018-05-12T09:12:40.438Z,20.80
2018-05-12T09:15:08.999Z,20.95
2018-05-12T09:17:37.588Z,21.09
2018-05-12T09:20:06.175Z,21.27
2018-05-12T09:22:34.733Z,21.40
2018-05-12T09:25:03.526Z,21.60
2018-05-12T09:27:32.085Z,21.56
2018-05-12T09:30:00.638Z,21.55
2018-05-12T09:32:29.202Z,21.57
2018-05-12T09:34:57.764Z,21.65
2018-05-12T09:37:31.407Z,21.66
2018-05-12T09:39:59.972Z,21.64
2018-05-12T09:42:28.569Z,21.59
2018-05-12T09:44:57.385Z,21.38
2018-05-12T09:47:25.762Z,21.42
2018-05-12T09:49:54.347Z,21.52
2018-05-12T09:52:22.931Z,21.56
2018-05-12T09:54:51.662Z,21.69
2018-05-12T09:57:20.235Z,21.91
2018-05-12T09:59:48.801Z,22.05
2018-05-12T10:02:17.363Z,22.04
2018-05-12T10:04:45.924Z,22.13
2018-05-12T10:07:14.476Z,22.19
2018-05-12T10:09:43.138Z,22.17
2018-05-12T10:12:11.831Z,22.30
2018-05-12T10:14:40.384Z,22.48
2018-05-12T10:17:08.944Z,22.47
2018-05-12T10:19:37.564Z,22.16
2018-05-12T10:22:05.782Z,22.13
2018-05-12T10:24:34.344Z,22.17
2018-05-12T10:27:02.904Z,22.21
2018-05-12T10:29:31.490Z,22.33
2018-05-12T10:32:00.046Z,22.50
2018-05-12T10:34:28.608Z,22.62
2018-05-12T10:36:57.206Z,22.55
2018-05-12T10:39:25.764Z,22.64
2018-05-12T10:41:54.328Z,22.92
2018-05-12T10:44:22.887Z,22.93
2018-05-12T10:46:51.448Z,23.07
2018-05-12T10:49:20.004Z,23.21
2018-05-12T10:51:48.564Z,23.13
2018-05-12T10:54:17.142Z,23.06
2018-05-12T10:56:45.699Z,22.98
2018-05-12T10:59:14.250Z,23.17
2018-05-12T11:01:42.803Z,23.46
2018-05-12T11:04:11.380Z,23.86
2018-05-12T11:06:39.934Z,24.22
2018-05-12T11:09:08.528Z,24.25
2018-05-12T11:11:37.083Z,24.39
2018-05-12T11:14:05.692Z,24.62
2018-05-12T11:16:34.256Z,24.64
2018-05-12T11:19:02.807Z,24.51
2018-05-12T11:21:31.400Z,24.12
2018-05-12T11:24:00.142Z,23.76
2018-05-12T11:26:28.704Z,23.56
2018-05-12T11:28:57.306Z,23.42
2018-05-12T11:31:25.920Z,23.39
2018-05-12T11:33:54.544Z,23.41
2018-05-12T11:36:23.133Z,23.54
2018-05-12T11:38:51.866Z,23.32
2018-05-12T11:41:20.470Z,22.42
2018-05-12T11:43:49.026Z,22.53
2018-05-12T11:46:17.662Z,22.52
2018-05-12T11:48:46.398Z,22.70
2018-05-12T11:51:14.960Z,22.58
2018-05-12T11:53:43.526Z,22.42
2018-05-12T11:56:12.099Z,22.38
2018-05-12T11:58:40.658Z,22.11
2018-05-12T12:01:09.267Z,22.20
2018-05-12T12:03:37.849Z,22.26
2018-05-12T12:06:06.628Z,22.38
2018-05-12T12:08:35.194Z,22.52
2018-05-12T12:11:03.765Z,22.80
2018-05-12T12:13:32.327Z,22.82
2018-05-12T12:16:00.890Z,23.15
2018-05-12T12:18:29.446Z,23.15
2018-05-12T12:20:57.828Z,22.69
2018-05-12T12:23:26.432Z,22.41
2018-05-12T12:25:55.067Z,22.42
2018-05-12T12:28:23.691Z,22.20
2018-05-12T12:30:52.283Z,21.98
2018-05-12T12:33:21.692Z,21.77
2018-05-12T12:35:50.364Z,21.71
2018-05-12T12:38:18.950Z,21.66
2018-05-12T12:40:47.608Z,21.55
2018-05-12T12:43:16.195Z,21.53
2018-05-12T12:45:44.784Z,21.39
2018-05-12T12:48:13.355Z,21.41
2018-05-12T12:50:41.978Z,21.58
2018-05-12T12:53:10.523Z,21.63
2018-05-12T12:55:39.082Z,21.69
2018-05-12T12:58:07.655Z,21.75
2018-05-12T13:00:36.221Z,21.84
2018-05-12T13:03:04.778Z,21.89
2018-05-12T13:05:33.601Z,22.09
2018-05-12T13:08:02.165Z,22.16
2018-05-12T13:10:30.724Z,21.82
2018-05-12T13:12:59.282Z,21.62
2018-05-12T13:15:27.878Z,21.54
2018-05-12T13:17:56.460Z,21.54
2018-05-12T13:20:25.216Z,21.60
2018-05-12T13:22:53.790Z,21.63
2018-05-12T13:25:22.438Z,21.52
2018-05-12T13:27:51.252Z,21.54
2018-05-12T13:30:19.915Z,21.58
2018-05-12T13:32:48.606Z,21.38
2018-05-12T13:35:17.180Z,21.56
2018-05-12T13:37:47.873Z,21.88
2018-05-12T13:40:16.552Z,22.11
2018-05-12T13:42:45.302Z,22.19
2018-05-12T13:45:14.138Z,22.31
2018-05-12T13:47:42.688Z,22.24
2018-05-12T13:50:10.997Z,22.09
2018-05-12T13:52:39.568Z,22.00
2018-05-12T13:55:08.126Z,21.81
2018-05-12T13:58:05.004Z,21.74
2018-05-12T14:00:33.615Z,21.82
2018-05-12T14:03:02.188Z,21.86
2018-05-12T14:05:30.748Z,21.83
2018-05-12T14:07:59.360Z,21.90
2018-05-12T14:10:28.235Z,22.02
2018-05-12T14:12:56.845Z,22.06
2018-05-12T14:15:25.481Z,21.96
2018-05-12T14:17:54.048Z,21.91
2018-05-12T14:20:22.603Z,21.91
2018-05-12T14:22:51.161Z,21.82
2018-05-12T14:25:19.767Z,21.72
2018-05-12T14:27:48.333Z,21.65
2018-05-12T14:30:17.023Z,21.65
2018-05-12T14:32:45.590Z,21.65
2018-05-12T14:35:16.719Z,21.50
2018-05-12T14:37:53.209Z,21.00
2018-05-12T14:40:21.880Z,20.90
2018-05-12T14:42:54.603Z,20.88
2018-05-12T14:45:23.303Z,20.90
2018-05-12T14:47:52.033Z,20.82
2018-05-12T14:50:20.591Z,20.57
2018-05-12T14:52:49.136Z,20.28
2018-05-12T14:55:17.686Z,20.37
2018-05-12T14:57:46.233Z,20.45
2018-05-12T15:00:14.843Z,20.29
2018-05-12T15:02:55.212Z,20.27
2018-05-12T15:05:23.856Z,20.20
2018-05-12T15:07:52.404Z,20.29
2018-05-12T15:10:21.021Z,20.35
2018-05-12T15:12:49.593Z,20.34
2018-05-12T15:15:18.188Z,20.35
2018-05-12T15:17:46.753Z,20.33
2018-05-12T15:20:15.298Z,20.27
2018-05-12T15:22:43.846Z,19.74
2018-05-12T15:25:12.500Z,19.26
2018-05-12T15:27:41.073Z,19.10
2018-05-12T15:30:11.086Z,19.06
2018-05-12T15:32:39.701Z,19.10
2018-05-12T15:35:08.271Z,18.94
2018-05-12T15:37:36.836Z,19.04
2018-05-12T15:40:05.099Z,19.04
2018-05-12T15:42:33.791Z,19.19
2018-05-12T15:45:02.359Z,19.26
2018-05-12T15:47:31.017Z,19.29
2018-05-12T15:49:59.693Z,19.34
2018-05-12T15:52:28.487Z,19.39
2018-05-12T15:54:57.263Z,19.48
2018-05-12T15:57:26.181Z,19.54
2018-05-12T15:59:54.988Z,19.61
2018-05-12T16:02:23.586Z,19.59
2018-05-12T16:05:09.605Z,19.63
2018-05-12T16:07:40.284Z,19.66
2018-05-12T16:10:10.337Z,19.58
2018-05-12T16:12:54.974Z,19.60
2018-05-12T16:15:39.505Z,19.60
2018-05-12T16:18:15.213Z,19.60
2018-05-12T16:20:43.891Z,19.64
2018-05-12T16:23:12.444Z,19.55
2018-05-12T16:25:41.561Z,19.39
2018-05-12T16:28:10.156Z,19.41
2018-05-12T16:30:38.754Z,19.37
2018-05-12T16:33:07.365Z,19.31
2018-05-12T16:35:36.047Z,19.26
2018-05-12T16:38:04.808Z,19.12
2018-05-12T16:40:33.413Z,19.04
2018-05-12T16:43:02.114Z,19.01
2018-05-12T16:45:31.002Z,19.05
2018-05-12T16:48:12.551Z,19.11
2018-05-12T16:50:43.215Z,19.08
2018-05-12T16:53:12.614Z,19.05
2018-05-12T16:55:48.906Z,19.01
2018-05-12T16:58:34.559Z,19.00
2018-05-12T17:01:05.471Z,18.96
2018-05-12T17:03:36.522Z,18.94
2018-05-12T17:06:08.265Z,18.92
2018-05-12T17:08:36.944Z,18.91
2018-05-12T17:11:05.639Z,18.86
2018-05-12T17:13:34.227Z,18.74
2018-05-12T17:16:02.841Z,18.73
2018-05-12T17:18:31.403Z,18.60
2018-05-12T17:21:00.052Z,18.45
2018-05-12T17:23:28.602Z,18.39
2018-05-12T17:25:57.218Z,18.28
2018-05-12T17:28:25.827Z,18.22
2018-05-12T17:30:54.437Z,17.99
2018-05-12T17:33:23.071Z,17.94
2018-05-12T17:35:51.711Z,17.93
2018-05-12T17:38:20.353Z,17.88
2018-05-12T17:40:49.088Z,17.79
2018-05-12T17:43:17.687Z,17.83
2018-05-12T17:45:46.294Z,17.78
2018-05-12T17:48:14.865Z,17.79
2018-05-12T17:50:43.422Z,17.79
2018-05-12T17:53:12.077Z,17.84
2018-05-12T17:55:40.775Z,17.90
2018-05-12T17:58:09.336Z,17.90
2018-05-12T18:00:39.827Z,17.90
2018-05-12T18:03:08.389Z,17.83
2018-05-12T18:05:36.963Z,17.76
2018-05-12T18:08:05.532Z,17.58
2018-05-12T18:10:34.099Z,17.49
2018-05-12T18:13:02.401Z,17.41
2018-05-12T18:15:30.960Z,17.25
2018-05-12T18:17:59.560Z,17.06
2018-05-12T18:20:28.123Z,16.82
2018-05-12T18:22:56.686Z,16.70
2018-05-12T18:25:25.239Z,16.56
2018-05-12T18:27:53.793Z,16.42
2018-05-12T18:30:27.581Z,16.18
2018-05-12T18:32:56.590Z,16.09
2018-05-12T18:35:25.555Z,16.07
2018-05-12T18:37:54.481Z,16.11
2018-05-12T18:40:23.097Z,16.16
2018-05-12T18:42:51.713Z,16.15
2018-05-12T18:45:39.899Z,15.98
2018-05-12T18:48:08.684Z,15.93
2018-05-12T18:50:37.509Z,15.91
2018-05-12T18:53:06.275Z,15.83
2018-05-12T18:55:34.853Z,15.87
2018-05-12T18:58:03.464Z,15.76
2018-05-12T19:00:32.028Z,15.72
2018-05-12T19:03:00.591Z,15.72
2018-05-12T19:05:29.147Z,15.76
2018-05-12T19:07:58.970Z,15.81
2018-05-12T19:10:27.532Z,15.77
2018-05-12T19:12:56.091Z,15.86
2018-05-12T19:15:24.663Z,15.91
2018-05-12T19:17:53.246Z,15.93
2018-05-12T19:20:21.804Z,15.96
2018-05-12T19:22:50.349Z,16.02
2018-05-12T19:25:18.908Z,16.04
2018-05-12T19:27:47.514Z,16.12
2018-05-12T19:30:15.828Z,16.18
2018-05-12T19:32:44.408Z,16.29
2018-05-12T19:35:13.466Z,16.28
2018-05-12T19:37:44.976Z,16.26
2018-05-12T19:40:13.573Z,16.22
2018-05-12T19:42:44.388Z,16.24
2018-05-12T19:45:12.994Z,16.26
2018-05-12T19:47:41.596Z,16.32
2018-05-12T19:50:10.169Z,16.32
2018-05-12T19:52:38.767Z,15.97
2018-05-12T19:55:06.937Z,15.87
2018-05-12T19:57:35.496Z,15.77
2018-05-12T20:00:05.282Z,15.70
2018-05-12T20:02:33.849Z,15.77
2018-05-12T20:05:02.418Z,15.80
2018-05-12T20:07:30.984Z,15.87
2018-05-12T20:09:59.576Z,15.95
2018-05-12T20:12:28.228Z,16.04
